sensor_id;sensor_type;location;lat;lon;timestamp;P1;durP1;ratioP1;P2;durP2;ratioP2
14760;SDS011;7472;45.396;5.272;2023-06-10T00:02:22;7.43;;;5.35;;
14760;SDS011;7472;45.396;5.272;2023-06-10T00:04:49;7.25;;;5.40;;
14760;SDS011;7472;45.396;5.272;2023-06-10T00:07:17;8.30;;;5.88;;
14760;SDS011;7472;45.396;5.272;2023-06-10T00:09:45;5.72;;;5.20;;
14760;SDS011;7472;45.396;5.272;2023-06-10T00:12:12;6.53;;;5.72;;
14760;SDS011;7472;45.396;5.272;2023-06-10T00:14:41;6.43;;;5.55;;
14760;SDS011;7472;45.396;5.272;2023-06-10T00:17:08;8.50;;;5.38;;
14760;SDS011;7472;45.396;5.272;2023-06-10T00:19:36;13.80;;;6.15;;
14760;SDS011;7472;45.396;5.272;2023-06-10T00:22:06;6.80;;;5.90;;
14760;SDS011;7472;45.396;5.272;2023-06-10T00:24:34;8.18;;;5.75;;
14760;SDS011;7472;45.396;5.272;2023-06-10T00:27:02;11.20;;;6.28;;
14760;SDS011;7472;45.396;5.272;2023-06-10T00:29:29;8.38;;;5.95;;
14760;SDS011;7472;45.396;5.272;2023-06-10T00:31:58;9.23;;;6.20;;
14760;SDS011;7472;45.396;5.272;2023-06-10T00:34:25;8.68;;;5.93;;
14760;SDS011;7472;45.396;5.272;2023-06-10T00:36:52;6.53;;;5.63;;
14760;SDS011;7472;45.396;5.272;2023-06-10T00:39:20;8.00;;;5.63;;
14760;SDS011;7472;45.396;5.272;2023-06-10T00:41:47;7.28;;;6.07;;
14760;SDS011;7472;45.396;5.272;2023-06-10T00:44:15;8.85;;;5.63;;
14760;SDS011;7472;45.396;5.272;2023-06-10T00:46:42;8.70;;;6.40;;
14760;SDS011;7472;45.396;5.272;2023-06-10T00:49:11;7.25;;;5.80;;
14760;SDS011;7472;45.396;5.272;2023-06-10T00:51:38;10.07;;;5.75;;
14760;SDS011;7472;45.396;5.272;2023-06-10T00:54:06;6.90;;;5.05;;
14760;SDS011;7472;45.396;5.272;2023-06-10T00:56:34;7.80;;;6.13;;
14760;SDS011;7472;45.396;5.272;2023-06-10T00:59:02;5.80;;;5.03;;
14760;SDS011;7472;45.396;5.272;2023-06-10T01:01:29;12.48;;;6.07;;
14760;SDS011;7472;45.396;5.272;2023-06-10T01:03:57;7.43;;;5.35;;
14760;SDS011;7472;45.396;5.272;2023-06-10T01:06:28;5.47;;;4.97;;
14760;SDS011;7472;45.396;5.272;2023-06-10T01:09:02;5.95;;;4.97;;
14760;SDS011;7472;45.396;5.272;2023-06-10T01:11:34;7.00;;;5.28;;
14760;SDS011;7472;45.396;5.272;2023-06-10T01:14:03;5.47;;;4.97;;
14760;SDS011;7472;45.396;5.272;2023-06-10T01:16:32;6.03;;;4.82;;
14760;SDS011;7472;45.396;5.272;2023-06-10T01:19:01;5.90;;;4.78;;
14760;SDS011;7472;45.396;5.272;2023-06-10T01:21:30;8.75;;;4.93;;
14760;SDS011;7472;45.396;5.272;2023-06-10T01:23:57;5.43;;;4.20;;
14760;SDS011;7472;45.396;5.272;2023-06-10T01:26:27;5.75;;;4.95;;
14760;SDS011;7472;45.396;5.272;2023-06-10T01:28:57;5.50;;;4.45;;
14760;SDS011;7472;45.396;5.272;2023-06-10T01:31:28;7.18;;;5.20;;
14760;SDS011;7472;45.396;5.272;2023-06-10T01:33:59;7.78;;;4.57;;
14760;SDS011;7472;45.396;5.272;2023-06-10T01:36:27;6.63;;;4.95;;
14760;SDS011;7472;45.396;5.272;2023-06-10T01:38:56;7.03;;;4.80;;
14760;SDS011;7472;45.396;5.272;2023-06-10T01:41:25;6.25;;;5.13;;
14760;SDS011;7472;45.396;5.272;2023-06-10T01:43:54;5.50;;;4.40;;
14760;SDS011;7472;45.396;5.272;2023-06-10T01:46:21;6.18;;;5.57;;
14760;SDS011;7472;45.396;5.272;2023-06-10T01:48:48;6.45;;;4.60;;
14760;SDS011;7472;45.396;5.272;2023-06-10T01:51:16;7.40;;;5.18;;
14760;SDS011;7472;45.396;5.272;2023-06-10T01:53:43;9.30;;;5.07;;
14760;SDS011;7472;45.396;5.272;2023-06-10T01:56:12;6.80;;;4.47;;
14760;SDS011;7472;45.396;5.272;2023-06-10T01:58:43;6.55;;;4.75;;
14760;SDS011;7472;45.396;5.272;2023-06-10T02:01:10;9.57;;;5.22;;
14760;SDS011;7472;45.396;5.272;2023-06-10T02:03:38;8.02;;;5.30;;
14760;SDS011;7472;45.396;5.272;2023-06-10T02:06:05;8.73;;;5.70;;
14760;SDS011;7472;45.396;5.272;2023-06-10T02:08:32;10.60;;;6.55;;
14760;SDS011;7472;45.396;5.272;2023-06-10T02:11:00;7.45;;;5.60;;
14760;SDS011;7472;45.396;5.272;2023-06-10T02:13:29;9.05;;;5.80;;
14760;SDS011;7472;45.396;5.272;2023-06-10T02:15:56;6.47;;;5.50;;
14760;SDS011;7472;45.396;5.272;2023-06-10T02:18:25;7.88;;;5.68;;
14760;SDS011;7472;45.396;5.272;2023-06-10T02:20:53;12.73;;;7.32;;
14760;SDS011;7472;45.396;5.272;2023-06-10T02:23:20;11.55;;;7.25;;
14760;SDS011;7472;45.396;5.272;2023-06-10T02:25:47;12.57;;;7.47;;
14760;SDS011;7472;45.396;5.272;2023-06-10T02:28:15;18.17;;;8.98;;
14760;SDS011;7472;45.396;5.272;2023-06-10T02:30:44;12.07;;;8.07;;
14760;SDS011;7472;45.396;5.272;2023-06-10T02:33:12;13.50;;;7.75;;
14760;SDS011;7472;45.396;5.272;2023-06-10T02:35:40;14.95;;;8.50;;
14760;SDS011;7472;45.396;5.272;2023-06-10T02:38:07;13.38;;;8.57;;
14760;SDS011;7472;45.396;5.272;2023-06-10T02:40:35;12.75;;;7.57;;
14760;SDS011;7472;45.396;5.272;2023-06-10T02:43:02;9.90;;;8.15;;
14760;SDS011;7472;45.396;5.272;2023-06-10T02:45:30;9.88;;;6.80;;
14760;SDS011;7472;45.396;5.272;2023-06-10T02:47:58;7.20;;;6.38;;
14760;SDS011;7472;45.396;5.272;2023-06-10T02:50:26;7.40;;;5.75;;
14760;SDS011;7472;45.396;5.272;2023-06-10T02:52:53;7.22;;;5.78;;
14760;SDS011;7472;45.396;5.272;2023-06-10T02:55:20;7.40;;;5.00;;
14760;SDS011;7472;45.396;5.272;2023-06-10T02:57:51;6.00;;;5.47;;
14760;SDS011;7472;45.396;5.272;2023-06-10T03:00:19;5.30;;;4.80;;
14760;SDS011;7472;45.396;5.272;2023-06-10T03:02:46;7.53;;;4.85;;
14760;SDS011;7472;45.396;5.272;2023-06-10T03:05:15;11.35;;;7.35;;
14760;SDS011;7472;45.396;5.272;2023-06-10T03:07:42;9.75;;;6.93;;
14760;SDS011;7472;45.396;5.272;2023-06-10T03:10:11;9.90;;;7.28;;
14760;SDS011;7472;45.396;5.272;2023-06-10T03:12:38;7.47;;;6.78;;
14760;SDS011;7472;45.396;5.272;2023-06-10T03:15:06;6.88;;;6.05;;
14760;SDS011;7472;45.396;5.272;2023-06-10T03:17:34;10.40;;;6.78;;
14760;SDS011;7472;45.396;5.272;2023-06-10T03:20:01;8.30;;;6.05;;
14760;SDS011;7472;45.396;5.272;2023-06-10T03:22:32;8.93;;;6.68;;
14760;SDS011;7472;45.396;5.272;2023-06-10T03:25:00;9.40;;;6.50;;
14760;SDS011;7472;45.396;5.272;2023-06-10T03:27:28;15.43;;;6.78;;
14760;SDS011;7472;45.396;5.272;2023-06-10T03:29:56;9.00;;;6.53;;
14760;SDS011;7472;45.396;5.272;2023-06-10T03:32:24;7.78;;;6.32;;
14760;SDS011;7472;45.396;5.272;2023-06-10T03:34:51;6.65;;;6.00;;
14760;SDS011;7472;45.396;5.272;2023-06-10T03:37:22;9.32;;;6.50;;
14760;SDS011;7472;45.396;5.272;2023-06-10T03:39:50;6.88;;;5.88;;
14760;SDS011;7472;45.396;5.272;2023-06-10T03:42:18;12.95;;;6.10;;
14760;SDS011;7472;45.396;5.272;2023-06-10T03:44:45;7.30;;;6.60;;
14760;SDS011;7472;45.396;5.272;2023-06-10T03:47:13;8.57;;;6.15;;
14760;SDS011;7472;45.396;5.272;2023-06-10T03:49:41;8.63;;;5.93;;
14760;SDS011;7472;45.396;5.272;2023-06-10T03:52:08;10.18;;;5.88;;
14760;SDS011;7472;45.396;5.272;2023-06-10T03:54:36;7.35;;;5.85;;
14760;SDS011;7472;45.396;5.272;2023-06-10T03:57:05;11.75;;;6.40;;
14760;SDS011;7472;45.396;5.272;2023-06-10T03:59:32;6.82;;;6.00;;
14760;SDS011;7472;45.396;5.272;2023-06-10T04:02:00;7.55;;;6.20;;
14760;SDS011;7472;45.396;5.272;2023-06-10T04:04:27;8.25;;;5.93;;
14760;SDS011;7472;45.396;5.272;2023-06-10T04:06:55;8.60;;;6.13;;
14760;SDS011;7472;45.396;5.272;2023-06-10T04:09:22;9.38;;;5.40;;
14760;SDS011;7472;45.396;5.272;2023-06-10T04:11:50;9.55;;;5.55;;
14760;SDS011;7472;45.396;5.272;2023-06-10T04:14:19;11.07;;;5.88;;
14760;SDS011;7472;45.396;5.272;2023-06-10T04:16:47;7.57;;;5.53;;
14760;SDS011;7472;45.396;5.272;2023-06-10T04:19:15;16.23;;;7.38;;
14760;SDS011;7472;45.396;5.272;2023-06-10T04:21:42;6.28;;;5.50;;
14760;SDS011;7472;45.396;5.272;2023-06-10T04:24:10;11.52;;;6.05;;
14760;SDS011;7472;45.396;5.272;2023-06-10T04:26:37;9.68;;;6.18;;
14760;SDS011;7472;45.396;5.272;2023-06-10T04:29:04;9.32;;;6.65;;
14760;SDS011;7472;45.396;5.272;2023-06-10T04:31:34;7.22;;;6.18;;
14760;SDS011;7472;45.396;5.272;2023-06-10T04:34:01;8.15;;;7.20;;
14760;SDS011;7472;45.396;5.272;2023-06-10T04:36:29;9.27;;;7.07;;
14760;SDS011;7472;45.396;5.272;2023-06-10T04:38:57;11.38;;;8.32;;
14760;SDS011;7472;45.396;5.272;2023-06-10T04:41:24;13.05;;;8.60;;
14760;SDS011;7472;45.396;5.272;2023-06-10T04:43:52;9.40;;;7.72;;
14760;SDS011;7472;45.396;5.272;2023-06-10T04:46:19;13.30;;;8.57;;
14760;SDS011;7472;45.396;5.272;2023-06-10T04:48:48;11.38;;;7.60;;
14760;SDS011;7472;45.396;5.272;2023-06-10T04:51:16;8.95;;;7.55;;
14760;SDS011;7472;45.396;5.272;2023-06-10T04:53:43;8.85;;;6.15;;
14760;SDS011;7472;45.396;5.272;2023-06-10T04:56:11;12.93;;;8.23;;
14760;SDS011;7472;45.396;5.272;2023-06-10T04:58:38;8.13;;;7.43;;
14760;SDS011;7472;45.396;5.272;2023-06-10T05:01:05;7.30;;;6.57;;
14760;SDS011;7472;45.396;5.272;2023-06-10T05:03:33;10.73;;;8.07;;
14760;SDS011;7472;45.396;5.272;2023-06-10T05:06:02;12.32;;;7.88;;
14760;SDS011;7472;45.396;5.272;2023-06-10T05:08:29;8.35;;;7.50;;
14760;SDS011;7472;45.396;5.272;2023-06-10T05:10:57;10.32;;;8.32;;
14760;SDS011;7472;45.396;5.272;2023-06-10T05:13:24;9.38;;;7.72;;
14760;SDS011;7472;45.396;5.272;2023-06-10T05:15:51;11.50;;;8.52;;
14760;SDS011;7472;45.396;5.272;2023-06-10T05:18:19;11.63;;;8.73;;
14760;SDS011;7472;45.396;5.272;2023-06-10T05:20:46;9.32;;;7.38;;
14760;SDS011;7472;45.396;5.272;2023-06-10T05:23:15;9.40;;;7.47;;
14760;SDS011;7472;45.396;5.272;2023-06-10T05:25:43;8.63;;;7.82;;
14760;SDS011;7472;45.396;5.272;2023-06-10T05:28:11;10.50;;;7.95;;
14760;SDS011;7472;45.396;5.272;2023-06-10T05:30:38;8.93;;;8.05;;
14760;SDS011;7472;45.396;5.272;2023-06-10T05:33:05;11.93;;;8.63;;
14760;SDS011;7472;45.396;5.272;2023-06-10T05:35:33;14.10;;;9.27;;
14760;SDS011;7472;45.396;5.272;2023-06-10T05:38:00;9.55;;;8.68;;
14760;SDS011;7472;45.396;5.272;2023-06-10T05:40:29;12.45;;;9.75;;
14760;SDS011;7472;45.396;5.272;2023-06-10T05:42:56;10.00;;;8.77;;
14760;SDS011;7472;45.396;5.272;2023-06-10T05:45:23;14.60;;;10.00;;
14760;SDS011;7472;45.396;5.272;2023-06-10T05:47:51;10.38;;;8.93;;
14760;SDS011;7472;45.396;5.272;2023-06-10T05:50:18;11.52;;;8.52;;
14760;SDS011;7472;45.396;5.272;2023-06-10T05:52:46;13.20;;;9.65;;
14760;SDS011;7472;45.396;5.272;2023-06-10T05:55:13;9.82;;;8.15;;
14760;SDS011;7472;45.396;5.272;2023-06-10T05:57:42;15.63;;;9.82;;
14760;SDS011;7472;45.396;5.272;2023-06-10T06:00:10;10.70;;;8.07;;
14760;SDS011;7472;45.396;5.272;2023-06-10T06:02:37;9.02;;;7.78;;
14760;SDS011;7472;45.396;5.272;2023-06-10T06:05:05;13.48;;;7.85;;
14760;SDS011;7472;45.396;5.272;2023-06-10T06:07:32;9.50;;;8.52;;
14760;SDS011;7472;45.396;5.272;2023-06-10T06:10:00;11.20;;;8.25;;
14760;SDS011;7472;45.396;5.272;2023-06-10T06:12:27;13.48;;;9.13;;
14760;SDS011;7472;45.396;5.272;2023-06-10T06:14:56;10.73;;;8.25;;
14760;SDS011;7472;45.396;5.272;2023-06-10T06:17:23;9.55;;;8.50;;
14760;SDS011;7472;45.396;5.272;2023-06-10T06:19:51;9.70;;;8.63;;
14760;SDS011;7472;45.396;5.272;2023-06-10T06:22:18;9.30;;;8.40;;
14760;SDS011;7472;45.396;5.272;2023-06-10T06:24:47;11.07;;;9.35;;
14760;SDS011;7472;45.396;5.272;2023-06-10T06:27:14;9.75;;;8.13;;
14760;SDS011;7472;45.396;5.272;2023-06-10T06:29:42;10.75;;;8.35;;
14760;SDS011;7472;45.396;5.272;2023-06-10T06:32:10;11.90;;;9.13;;
14760;SDS011;7472;45.396;5.272;2023-06-10T06:34:38;7.93;;;7.07;;
14760;SDS011;7472;45.396;5.272;2023-06-10T06:37:05;11.70;;;7.95;;
14760;SDS011;7472;45.396;5.272;2023-06-10T06:39:33;8.60;;;7.70;;
14760;SDS011;7472;45.396;5.272;2023-06-10T06:42:00;8.02;;;7.05;;
14760;SDS011;7472;45.396;5.272;2023-06-10T06:44:27;7.63;;;6.80;;
14760;SDS011;7472;45.396;5.272;2023-06-10T06:46:55;6.72;;;6.10;;
14760;SDS011;7472;45.396;5.272;2023-06-10T06:49:24;9.98;;;5.82;;
14760;SDS011;7472;45.396;5.272;2023-06-10T06:51:51;7.40;;;6.70;;
14760;SDS011;7472;45.396;5.272;2023-06-10T06:54:18;7.32;;;6.47;;
14760;SDS011;7472;45.396;5.272;2023-06-10T06:56:46;7.60;;;6.82;;
14760;SDS011;7472;45.396;5.272;2023-06-10T06:59:13;9.98;;;7.25;;
14760;SDS011;7472;45.396;5.272;2023-06-10T07:01:42;10.40;;;7.22;;
14760;SDS011;7472;45.396;5.272;2023-06-10T07:04:09;7.43;;;6.72;;
14760;SDS011;7472;45.396;5.272;2023-06-10T07:06:38;10.10;;;6.05;;
14760;SDS011;7472;45.396;5.272;2023-06-10T07:09:06;8.57;;;6.35;;
14760;SDS011;7472;45.396;5.272;2023-06-10T07:11:34;5.82;;;5.20;;
14760;SDS011;7472;45.396;5.272;2023-06-10T07:14:02;5.38;;;4.88;;
14760;SDS011;7472;45.396;5.272;2023-06-10T07:16:29;5.63;;;5.13;;
14760;SDS011;7472;45.396;5.272;2023-06-10T07:18:57;10.75;;;6.45;;
14760;SDS011;7472;45.396;5.272;2023-06-10T07:21:24;6.57;;;5.30;;
14760;SDS011;7472;45.396;5.272;2023-06-10T07:23:55;6.75;;;5.07;;
14760;SDS011;7472;45.396;5.272;2023-06-10T07:26:22;8.90;;;5.13;;
14760;SDS011;7472;45.396;5.272;2023-06-10T07:28:50;6.20;;;5.47;;
14760;SDS011;7472;45.396;5.272;2023-06-10T07:31:18;6.93;;;5.00;;
14760;SDS011;7472;45.396;5.272;2023-06-10T07:33:46;6.07;;;4.45;;
14760;SDS011;7472;45.396;5.272;2023-06-10T07:36:13;5.60;;;4.95;;
14760;SDS011;7472;45.396;5.272;2023-06-10T07:38:41;7.15;;;5.38;;
14760;SDS011;7472;45.396;5.272;2023-06-10T07:41:10;7.03;;;5.07;;
14760;SDS011;7472;45.396;5.272;2023-06-10T07:43:37;7.22;;;4.70;;
14760;SDS011;7472;45.396;5.272;2023-06-10T07:46:05;6.13;;;5.28;;
14760;SDS011;7472;45.396;5.272;2023-06-10T07:48:32;6.90;;;4.63;;
14760;SDS011;7472;45.396;5.272;2023-06-10T07:50:59;7.30;;;5.07;;
14760;SDS011;7472;45.396;5.272;2023-06-10T07:53:27;10.25;;;5.30;;
14760;SDS011;7472;45.396;5.272;2023-06-10T07:55:55;4.85;;;4.18;;
14760;SDS011;7472;45.396;5.272;2023-06-10T07:58:24;7.07;;;5.00;;
14760;SDS011;7472;45.396;5.272;2023-06-10T08:00:51;5.18;;;4.68;;
14760;SDS011;7472;45.396;5.272;2023-06-10T08:03:18;7.32;;;4.75;;
14760;SDS011;7472;45.396;5.272;2023-06-10T08:05:46;6.63;;;5.20;;
14760;SDS011;7472;45.396;5.272;2023-06-10T08:08:13;8.40;;;5.20;;
14760;SDS011;7472;45.396;5.272;2023-06-10T08:10:41;8.43;;;5.20;;
14760;SDS011;7472;45.396;5.272;2023-06-10T08:13:08;6.22;;;5.03;;
14760;SDS011;7472;45.396;5.272;2023-06-10T08:15:37;9.45;;;5.10;;
14760;SDS011;7472;45.396;5.272;2023-06-10T08:18:04;7.63;;;5.63;;
14760;SDS011;7472;45.396;5.272;2023-06-10T08:20:32;6.13;;;4.75;;
14760;SDS011;7472;45.396;5.272;2023-06-10T08:22:59;7.00;;;4.70;;
14760;SDS011;7472;45.396;5.272;2023-06-10T08:25:27;5.70;;;5.00;;
14760;SDS011;7472;45.396;5.272;2023-06-10T08:27:54;7.80;;;4.55;;
14760;SDS011;7472;45.396;5.272;2023-06-10T08:30:22;5.90;;;5.30;;
14760;SDS011;7472;45.396;5.272;2023-06-10T08:32:51;7.03;;;4.68;;
14760;SDS011;7472;45.396;5.272;2023-06-10T08:35:19;7.38;;;4.68;;
14760;SDS011;7472;45.396;5.272;2023-06-10T08:37:46;7.43;;;4.38;;
14760;SDS011;7472;45.396;5.272;2023-06-10T08:40:14;5.13;;;4.47;;
14760;SDS011;7472;45.396;5.272;2023-06-10T08:42:43;6.80;;;4.53;;
14760;SDS011;7472;45.396;5.272;2023-06-10T08:45:12;7.28;;;3.72;;
14760;SDS011;7472;45.396;5.272;2023-06-10T08:47:43;7.63;;;4.00;;
14760;SDS011;7472;45.396;5.272;2023-06-10T08:50:13;5.53;;;3.80;;
14760;SDS011;7472;45.396;5.272;2023-06-10T08:52:42;5.15;;;3.70;;
14760;SDS011;7472;45.396;5.272;2023-06-10T08:55:10;6.07;;;3.72;;
14760;SDS011;7472;45.396;5.272;2023-06-10T08:57:38;3.90;;;3.50;;
14760;SDS011;7472;45.396;5.272;2023-06-10T09:00:06;5.93;;;4.05;;
14760;SDS011;7472;45.396;5.272;2023-06-10T09:02:34;8.13;;;3.90;;
14760;SDS011;7472;45.396;5.272;2023-06-10T09:05:02;4.82;;;3.53;;
14760;SDS011;7472;45.396;5.272;2023-06-10T09:07:31;5.85;;;3.30;;
14760;SDS011;7472;45.396;5.272;2023-06-10T09:10:00;3.95;;;2.95;;
14760;SDS011;7472;45.396;5.272;2023-06-10T09:12:29;7.15;;;3.00;;
14760;SDS011;7472;45.396;5.272;2023-06-10T09:14:56;3.75;;;2.97;;
14760;SDS011;7472;45.396;5.272;2023-06-10T09:17:24;3.22;;;2.83;;
14760;SDS011;7472;45.396;5.272;2023-06-10T09:19:51;4.97;;;3.22;;
14760;SDS011;7472;45.396;5.272;2023-06-10T09:22:20;6.22;;;2.63;;
14760;SDS011;7472;45.396;5.272;2023-06-10T09:24:49;4.38;;;2.65;;
14760;SDS011;7472;45.396;5.272;2023-06-10T09:27:16;5.55;;;2.58;;
14760;SDS011;7472;45.396;5.272;2023-06-10T09:29:47;7.90;;;3.03;;
14760;SDS011;7472;45.396;5.272;2023-06-10T09:32:14;4.07;;;2.67;;
14760;SDS011;7472;45.396;5.272;2023-06-10T09:34:42;4.85;;;2.72;;
14760;SDS011;7472;45.396;5.272;2023-06-10T09:37:10;4.55;;;3.15;;
14760;SDS011;7472;45.396;5.272;2023-06-10T09:39:39;5.10;;;2.88;;
14760;SDS011;7472;45.396;5.272;2023-06-10T09:42:16;5.57;;;3.28;;
14760;SDS011;7472;45.396;5.272;2023-06-10T09:44:49;6.38;;;2.90;;
14760;SDS011;7472;45.396;5.272;2023-06-10T09:47:19;4.45;;;2.83;;
14760;SDS011;7472;45.396;5.272;2023-06-10T09:49:47;3.50;;;3.10;;
14760;SDS011;7472;45.396;5.272;2023-06-10T09:52:20;3.65;;;2.65;;
14760;SDS011;7472;45.396;5.272;2023-06-10T09:54:50;2.53;;;2.10;;
14760;SDS011;7472;45.396;5.272;2023-06-10T09:57:20;5.45;;;2.83;;
14760;SDS011;7472;45.396;5.272;2023-06-10T09:59:52;4.07;;;2.13;;
14760;SDS011;7472;45.396;5.272;2023-06-10T10:02:20;7.65;;;2.53;;
14760;SDS011;7472;45.396;5.272;2023-06-10T10:04:47;4.75;;;2.80;;
14760;SDS011;7472;45.396;5.272;2023-06-10T10:07:15;3.72;;;2.45;;
14760;SDS011;7472;45.396;5.272;2023-06-10T10:09:43;2.85;;;2.13;;
14760;SDS011;7472;45.396;5.272;2023-06-10T10:12:10;4.47;;;2.38;;
14760;SDS011;7472;45.396;5.272;2023-06-10T10:14:40;2.28;;;2.10;;
14760;SDS011;7472;45.396;5.272;2023-06-10T10:17:10;4.45;;;2.20;;
14760;SDS011;7472;45.396;5.272;2023-06-10T10:19:40;3.45;;;2.33;;
14760;SDS011;7472;45.396;5.272;2023-06-10T10:22:14;5.30;;;2.53;;
14760;SDS011;7472;45.396;5.272;2023-06-10T10:24:46;2.58;;;2.08;;
14760;SDS011;7472;45.396;5.272;2023-06-10T10:27:17;4.63;;;2.42;;
14760;SDS011;7472;45.396;5.272;2023-06-10T10:29:47;2.28;;;2.08;;
14760;SDS011;7472;45.396;5.272;2023-06-10T10:32:15;3.25;;;2.00;;
14760;SDS011;7472;45.396;5.272;2023-06-10T10:34:43;2.78;;;2.10;;
14760;SDS011;7472;45.396;5.272;2023-06-10T10:37:14;3.85;;;2.13;;
14760;SDS011;7472;45.396;5.272;2023-06-10T10:39:41;2.13;;;1.92;;
14760;SDS011;7472;45.396;5.272;2023-06-10T10:42:08;5.45;;;2.08;;
14760;SDS011;7472;45.396;5.272;2023-06-10T10:44:36;2.85;;;2.10;;
14760;SDS011;7472;45.396;5.272;2023-06-10T10:47:06;2.55;;;2.03;;
14760;SDS011;7472;45.396;5.272;2023-06-10T10:49:35;2.35;;;2.15;;
14760;SDS011;7472;45.396;5.272;2023-06-10T10:52:04;3.65;;;1.77;;
14760;SDS011;7472;45.396;5.272;2023-06-10T10:54:32;4.97;;;2.05;;
14760;SDS011;7472;45.396;5.272;2023-06-10T10:57:15;4.40;;;2.28;;
14760;SDS011;7472;45.396;5.272;2023-06-10T11:02:35;2.50;;;1.50;;
14760;SDS011;7472;45.396;5.272;2023-06-10T11:05:04;2.38;;;1.75;;
14760;SDS011;7472;45.396;5.272;2023-06-10T11:07:32;2.45;;;1.63;;
14760;SDS011;7472;45.396;5.272;2023-06-10T11:10:00;2.13;;;1.75;;
14760;SDS011;7472;45.396;5.272;2023-06-10T11:12:40;2.20;;;1.80;;
14760;SDS011;7472;45.396;5.272;2023-06-10T11:15:07;1.92;;;1.58;;
14760;SDS011;7472;45.396;5.272;2023-06-10T11:17:36;3.35;;;1.77;;
14760;SDS011;7472;45.396;5.272;2023-06-10T11:20:04;2.15;;;1.30;;
14760;SDS011;7472;45.396;5.272;2023-06-10T11:22:32;1.48;;;1.25;;
14760;SDS011;7472;45.396;5.272;2023-06-10T11:25:00;2.65;;;1.67;;
14760;SDS011;7472;45.396;5.272;2023-06-10T11:27:27;2.30;;;1.60;;
14760;SDS011;7472;45.396;5.272;2023-06-10T11:30:19;3.13;;;1.77;;
14760;SDS011;7472;45.396;5.272;2023-06-10T11:32:51;2.55;;;1.45;;
14760;SDS011;7472;45.396;5.272;2023-06-10T11:35:19;2.97;;;1.67;;
14760;SDS011;7472;45.396;5.272;2023-06-10T11:37:47;1.38;;;1.25;;
14760;SDS011;7472;45.396;5.272;2023-06-10T11:40:15;1.65;;;1.42;;
14760;SDS011;7472;45.396;5.272;2023-06-10T11:42:42;1.20;;;1.00;;
14760;SDS011;7472;45.396;5.272;2023-06-10T11:45:14;1.80;;;1.60;;
14760;SDS011;7472;45.396;5.272;2023-06-10T11:47:56;1.65;;;1.48;;
14760;SDS011;7472;45.396;5.272;2023-06-10T11:50:33;4.75;;;1.75;;
14760;SDS011;7472;45.396;5.272;2023-06-10T11:53:00;2.10;;;1.45;;
14760;SDS011;7472;45.396;5.272;2023-06-10T11:55:39;3.83;;;1.70;;
14760;SDS011;7472;45.396;5.272;2023-06-10T11:58:11;3.40;;;1.65;;
14760;SDS011;7472;45.396;5.272;2023-06-10T12:00:43;2.13;;;1.70;;
14760;SDS011;7472;45.396;5.272;2023-06-10T12:03:12;2.38;;;1.73;;
14760;SDS011;7472;45.396;5.272;2023-06-10T12:05:40;3.47;;;1.67;;
14760;SDS011;7472;45.396;5.272;2023-06-10T12:08:08;1.55;;;1.45;;
14760;SDS011;7472;45.396;5.272;2023-06-10T12:10:39;2.90;;;1.48;;
14760;SDS011;7472;45.396;5.272;2023-06-10T12:13:06;2.17;;;1.48;;
14760;SDS011;7472;45.396;5.272;2023-06-10T12:15:34;1.67;;;1.58;;
14760;SDS011;7472;45.396;5.272;2023-06-10T12:18:01;1.77;;;1.60;;
14760;SDS011;7472;45.396;5.272;2023-06-10T12:20:31;3.15;;;1.60;;
14760;SDS011;7472;45.396;5.272;2023-06-10T12:22:59;2.25;;;1.65;;
14760;SDS011;7472;45.396;5.272;2023-06-10T12:25:27;2.45;;;1.50;;
14760;SDS011;7472;45.396;5.272;2023-06-10T12:27:55;2.97;;;1.50;;
14760;SDS011;7472;45.396;5.272;2023-06-10T12:30:24;3.13;;;1.60;;
14760;SDS011;7472;45.396;5.272;2023-06-10T12:32:52;2.38;;;1.58;;
14760;SDS011;7472;45.396;5.272;2023-06-10T12:35:20;2.85;;;1.70;;
14760;SDS011;7472;45.396;5.272;2023-06-10T12:37:58;3.25;;;1.60;;
14760;SDS011;7472;45.396;5.272;2023-06-10T12:40:27;2.35;;;1.58;;
14760;SDS011;7472;45.396;5.272;2023-06-10T12:42:55;4.28;;;1.55;;
14760;SDS011;7472;45.396;5.272;2023-06-10T12:45:28;1.90;;;1.65;;
14760;SDS011;7472;45.396;5.272;2023-06-10T12:48:06;2.05;;;1.55;;
14760;SDS011;7472;45.396;5.272;2023-06-10T12:50:34;1.88;;;1.77;;
14760;SDS011;7472;45.396;5.272;2023-06-10T12:53:03;2.85;;;1.80;;
14760;SDS011;7472;45.396;5.272;2023-06-10T12:55:31;4.00;;;1.73;;
14760;SDS011;7472;45.396;5.272;2023-06-10T12:57:58;2.17;;;1.92;;
14760;SDS011;7472;45.396;5.272;2023-06-10T13:00:27;3.10;;;2.22;;
14760;SDS011;7472;45.396;5.272;2023-06-10T13:02:55;3.40;;;1.70;;
14760;SDS011;7472;45.396;5.272;2023-06-10T13:05:22;3.38;;;2.10;;
14760;SDS011;7472;45.396;5.272;2023-06-10T13:07:49;6.68;;;1.95;;
14760;SDS011;7472;45.396;5.272;2023-06-10T13:10:18;2.20;;;1.63;;
14760;SDS011;7472;45.396;5.272;2023-06-10T13:12:46;3.63;;;1.85;;
14760;SDS011;7472;45.396;5.272;2023-06-10T13:15:13;2.38;;;1.83;;
14760;SDS011;7472;45.396;5.272;2023-06-10T13:17:41;1.30;;;1.20;;
14760;SDS011;7472;45.396;5.272;2023-06-10T13:20:09;2.90;;;1.63;;
14760;SDS011;7472;45.396;5.272;2023-06-10T13:22:36;3.42;;;2.10;;
14760;SDS011;7472;45.396;5.272;2023-06-10T13:25:04;2.20;;;2.00;;
14760;SDS011;7472;45.396;5.272;2023-06-10T13:27:34;2.88;;;1.73;;
14760;SDS011;7472;45.396;5.272;2023-06-10T13:30:04;2.65;;;1.90;;
14760;SDS011;7472;45.396;5.272;2023-06-10T13:32:32;3.50;;;1.88;;
14760;SDS011;7472;45.396;5.272;2023-06-10T13:34:59;2.33;;;1.80;;
14760;SDS011;7472;45.396;5.272;2023-06-10T13:37:28;3.50;;;1.80;;
14760;SDS011;7472;45.396;5.272;2023-06-10T13:39:56;2.70;;;2.08;;
14760;SDS011;7472;45.396;5.272;2023-06-10T13:42:23;2.53;;;2.17;;
14760;SDS011;7472;45.396;5.272;2023-06-10T13:44:53;2.35;;;2.05;;
14760;SDS011;7472;45.396;5.272;2023-06-10T13:47:21;3.08;;;2.63;;
14760;SDS011;7472;45.396;5.272;2023-06-10T13:49:49;4.25;;;2.65;;
14760;SDS011;7472;45.396;5.272;2023-06-10T13:52:17;3.03;;;2.28;;
14760;SDS011;7472;45.396;5.272;2023-06-10T13:54:44;2.63;;;2.10;;
14760;SDS011;7472;45.396;5.272;2023-06-10T13:57:12;2.17;;;1.98;;
14760;SDS011;7472;45.396;5.272;2023-06-10T13:59:39;5.55;;;2.47;;
14760;SDS011;7472;45.396;5.272;2023-06-10T14:02:08;1.73;;;1.40;;
14760;SDS011;7472;45.396;5.272;2023-06-10T14:04:36;1.70;;;1.60;;
14760;SDS011;7472;45.396;5.272;2023-06-10T14:07:04;2.47;;;1.67;;
14760;SDS011;7472;45.396;5.272;2023-06-10T14:09:31;1.50;;;1.40;;
14760;SDS011;7472;45.396;5.272;2023-06-10T14:11:59;1.38;;;1.27;;
14760;SDS011;7472;45.396;5.272;2023-06-10T14:14:28;1.38;;;1.27;;
14760;SDS011;7472;45.396;5.272;2023-06-10T14:16:56;1.98;;;1.70;;
14760;SDS011;7472;45.396;5.272;2023-06-10T14:19:25;3.15;;;1.05;;
14760;SDS011;7472;45.396;5.272;2023-06-10T14:21:53;2.25;;;1.38;;
14760;SDS011;7472;45.396;5.272;2023-06-10T14:24:20;2.08;;;1.40;;
14760;SDS011;7472;45.396;5.272;2023-06-10T14:26:48;1.88;;;1.40;;
14760;SDS011;7472;45.396;5.272;2023-06-10T14:29:15;1.55;;;1.40;;
14760;SDS011;7472;45.396;5.272;2023-06-10T14:31:44;2.05;;;1.50;;
14760;SDS011;7472;45.396;5.272;2023-06-10T14:34:14;2.03;;;1.33;;
14760;SDS011;7472;45.396;5.272;2023-06-10T14:36:42;2.10;;;1.70;;
14760;SDS011;7472;45.396;5.272;2023-06-10T14:39:11;1.77;;;1.30;;
14760;SDS011;7472;45.396;5.272;2023-06-10T14:41:41;3.15;;;1.48;;
14760;SDS011;7472;45.396;5.272;2023-06-10T14:44:09;4.55;;;1.60;;
14760;SDS011;7472;45.396;5.272;2023-06-10T14:46:36;2.60;;;1.25;;
14760;SDS011;7472;45.396;5.272;2023-06-10T14:49:04;2.13;;;1.80;;
14760;SDS011;7472;45.396;5.272;2023-06-10T14:51:32;3.08;;;2.17;;
14760;SDS011;7472;45.396;5.272;2023-06-10T14:54:01;2.50;;;2.30;;
14760;SDS011;7472;45.396;5.272;2023-06-10T14:56:29;4.22;;;2.50;;
14760;SDS011;7472;45.396;5.272;2023-06-10T14:58:56;3.70;;;2.42;;
14760;SDS011;7472;45.396;5.272;2023-06-10T15:01:24;3.42;;;2.70;;
14760;SDS011;7472;45.396;5.272;2023-06-10T15:03:51;3.63;;;2.42;;
14760;SDS011;7472;45.396;5.272;2023-06-10T15:06:18;2.30;;;2.10;;
14760;SDS011;7472;45.396;5.272;2023-06-10T15:08:48;4.40;;;2.40;;
14760;SDS011;7472;45.396;5.272;2023-06-10T15:11:17;4.15;;;1.83;;